KDAY Airport Diagram

We have created a template for each of the higher traffic airports in the vZID airspace. They include KCMH, KCRW, KCVG, KDAY, KIND, KLEX and KSDF. You wil find usefull information including the airport diagram, weather, and specific airport procedures.

KDAY Weather

[Source: ADDS]
METAR
KDAY 261556Z 00000KT 10SM SCT250 23/14 A3017 RMK AO2 SLP211 T02330144 =
TAF
KDAY 261135Z 2612/2712 14005KT P6SM FEW250 FM261900 18006KT P6SM FEW250 FM270500 17005KT P6SM SCT045 BKN200 FM270900 19005KT P6SM VCSH SCT045 OVC150 =

DAY Operations

Calm Wind Configuration is runways 24L and 24R

Runway 24L typically departs south and west

Runway 24R typicall departs north and east

 

JSN Epic template designed by JoomlaShine.com